createdAt,value
2022-11-16T00:01:26.881Z,76.10
2022-11-16T00:03:57.734Z,76.44
2022-11-16T00:06:28.710Z,76.53
2022-11-16T00:09:21.457Z,76.47
2022-11-16T00:11:56.281Z,76.23
2022-11-16T00:14:28.541Z,76.21
2022-11-16T00:17:04.129Z,76.26
2022-11-16T00:19:35.006Z,76.31
2022-11-16T00:22:05.639Z,76.07
2022-11-16T00:24:35.476Z,75.82
2022-11-16T00:27:08.516Z,75.66
2022-11-16T00:29:39.666Z,75.69
2022-11-16T00:32:08.572Z,75.72
2022-11-16T00:34:37.759Z,76.12
2022-11-16T00:37:06.840Z,76.34
2022-11-16T00:39:35.761Z,76.63
2022-11-16T00:42:04.541Z,77.05
2022-11-16T00:44:32.896Z,76.97
2022-11-16T00:47:01.584Z,76.62
2022-11-16T00:49:30.022Z,76.37
2022-11-16T00:51:58.752Z,75.91
2022-11-16T00:54:27.361Z,75.77
2022-11-16T00:56:55.500Z,76.12
2022-11-16T00:59:24.604Z,76.32
2022-11-16T01:01:54.970Z,76.38
2022-11-16T01:04:24.075Z,76.51
2022-11-16T01:06:52.224Z,76.51
2022-11-16T01:09:20.477Z,76.51
2022-11-16T01:12:08.010Z,76.31
2022-11-16T01:14:38.183Z,76.24
2022-11-16T01:17:07.316Z,76.30
2022-11-16T01:19:36.669Z,76.46
2022-11-16T01:22:05.423Z,76.64
2022-11-16T01:24:33.701Z,76.92
2022-11-16T01:27:01.974Z,77.10
2022-11-16T01:29:33.256Z,77.18
2022-11-16T01:32:02.915Z,77.18
2022-11-16T01:34:33.068Z,77.07
2022-11-16T01:37:07.044Z,76.76
2022-11-16T01:39:38.604Z,76.56
2022-11-16T01:42:14.366Z,76.46
2022-11-16T01:44:42.524Z,76.35
2022-11-16T01:47:17.877Z,76.17
2022-11-16T01:49:48.816Z,76.33
2022-11-16T01:52:22.758Z,76.17
2022-11-16T01:54:53.868Z,76.45
2022-11-16T01:57:33.017Z,76.63
2022-11-16T02:00:11.230Z,76.65
2022-11-16T02:02:44.905Z,76.61
2022-11-16T02:05:42.471Z,76.54
2022-11-16T02:08:53.939Z,76.88
2022-11-16T02:11:22.532Z,76.80
2022-11-16T02:14:20.339Z,76.60
2022-11-16T02:17:03.431Z,76.60
2022-11-16T02:19:35.408Z,76.61
2022-11-16T02:22:53.352Z,76.42
2022-11-16T02:26:02.876Z,76.59
2022-11-16T02:28:46.118Z,76.68
2022-11-16T02:31:23.507Z,76.58
2022-11-16T02:33:54.650Z,76.69
2022-11-16T02:36:25.487Z,76.61
2022-11-16T02:39:05.142Z,76.63
2022-11-16T02:41:44.364Z,76.63
2022-11-16T02:44:20.002Z,76.42
2022-11-16T02:46:53.752Z,76.42
2022-11-16T02:49:25.352Z,76.68
2022-11-16T02:51:54.872Z,76.72
2022-11-16T02:54:24.885Z,76.93
2022-11-16T02:57:17.636Z,76.89
2022-11-16T02:59:50.631Z,76.85
2022-11-16T03:02:27.405Z,76.89
2022-11-16T03:05:02.740Z,76.89
2022-11-16T03:07:42.287Z,77.08
2022-11-16T03:10:11.787Z,77.16
2022-11-16T03:12:41.184Z,77.34
2022-11-16T03:15:12.909Z,77.12
2022-11-16T03:17:46.251Z,77.10
2022-11-16T03:20:22.917Z,76.97
2022-11-16T03:22:57.260Z,76.92
2022-11-16T03:25:31.141Z,76.74
2022-11-16T03:28:23.581Z,76.65
2022-11-16T03:31:01.289Z,76.43
2022-11-16T03:33:44.618Z,76.55
2022-11-16T03:36:27.228Z,76.49
2022-11-16T03:39:01.641Z,76.50
2022-11-16T03:41:31.360Z,76.79
2022-11-16T03:44:01.186Z,77.15
2022-11-16T03:46:29.505Z,77.59
2022-11-16T03:48:59.253Z,77.81
2022-11-16T03:51:29.794Z,77.95
2022-11-16T03:53:58.240Z,78.11
2022-11-16T03:56:26.647Z,78.01
2022-11-16T03:58:54.767Z,78.04
2022-11-16T04:01:23.241Z,78.21
2022-11-16T04:03:51.688Z,78.12
2022-11-16T04:06:39.503Z,78.23
2022-11-16T04:09:10.618Z,78.55
2022-11-16T04:11:58.222Z,78.72
2022-11-16T04:14:46.539Z,78.93
2022-11-16T04:17:37.843Z,79.14
2022-11-16T04:20:25.586Z,79.17
2022-11-16T04:23:22.291Z,79.16
2022-11-16T04:25:51.873Z,79.05
2022-11-16T04:28:27.374Z,78.95
2022-11-16T04:31:18.695Z,78.99
2022-11-16T04:34:11.653Z,79.03
2022-11-16T04:37:01.720Z,78.96
2022-11-16T04:39:30.513Z,78.85
2022-11-16T04:42:19.352Z,78.84
2022-11-16T04:45:07.624Z,78.86
2022-11-16T04:47:49.921Z,79.59
2022-11-16T04:50:19.949Z,79.76
2022-11-16T04:52:48.809Z,79.83
2022-11-16T04:55:18.130Z,79.71
2022-11-16T04:57:48.272Z,79.40
2022-11-16T05:00:18.274Z,79.29
2022-11-16T05:02:46.761Z,79.25
2022-11-16T05:05:15.186Z,79.26
2022-11-16T05:07:45.249Z,79.32
2022-11-16T05:10:19.880Z,79.50
2022-11-16T05:12:49.380Z,79.52
2022-11-16T05:15:20.040Z,79.42
2022-11-16T05:17:50.136Z,79.37
2022-11-16T05:20:40.146Z,79.51
2022-11-16T05:23:28.578Z,79.35
2022-11-16T05:25:58.286Z,79.57
2022-11-16T05:28:27.692Z,79.25
2022-11-16T05:30:56.164Z,79.34
2022-11-16T05:33:24.951Z,79.43
2022-11-16T05:35:53.747Z,79.52
2022-11-16T05:38:22.850Z,79.57
2022-11-16T05:40:53.970Z,79.80
2022-11-16T05:43:22.767Z,79.80
2022-11-16T05:46:01.393Z,79.62
2022-11-16T05:48:29.806Z,79.74
2022-11-16T05:50:59.959Z,80.11
2022-11-16T05:53:29.307Z,80.03
2022-11-16T05:55:59.144Z,80.09
2022-11-16T05:58:28.289Z,79.98
2022-11-16T06:00:58.514Z,79.79
2022-11-16T06:03:30.267Z,79.67
2022-11-16T06:06:00.054Z,79.68
2022-11-16T06:08:31.227Z,79.65
2022-11-16T06:11:06.447Z,79.63
2022-11-16T06:13:37.716Z,79.69
2022-11-16T06:16:09.059Z,79.56
2022-11-16T06:18:44.156Z,79.38
2022-11-16T06:21:15.160Z,79.35
2022-11-16T06:23:44.017Z,79.54
2022-11-16T06:26:12.842Z,79.54
2022-11-16T06:28:42.209Z,79.56
2022-11-16T06:31:10.489Z,79.68
2022-11-16T06:33:42.356Z,79.42
2022-11-16T06:36:21.617Z,79.37
2022-11-16T06:38:51.420Z,79.77
2022-11-16T06:41:20.939Z,79.82
2022-11-16T06:43:50.625Z,79.85
2022-11-16T06:46:20.561Z,79.80
2022-11-16T06:48:49.324Z,79.70
2022-11-16T06:51:19.251Z,79.65
2022-11-16T06:53:48.234Z,79.52
2022-11-16T06:56:16.739Z,79.38
2022-11-16T06:58:53.220Z,79.32
2022-11-16T07:01:22.521Z,79.32
2022-11-16T07:03:51.216Z,79.16
2022-11-16T07:06:19.528Z,79.26
2022-11-16T07:08:48.225Z,79.26
2022-11-16T07:11:20.338Z,79.04
2022-11-16T07:13:49.587Z,78.82
2022-11-16T07:16:18.822Z,78.63
2022-11-16T07:18:53.788Z,78.40
2022-11-16T07:21:47.518Z,78.47
2022-11-16T07:24:20.893Z,78.37
2022-11-16T07:26:49.685Z,78.38
2022-11-16T07:29:22.382Z,78.36
2022-11-16T07:32:08.584Z,78.26
2022-11-16T07:35:07.568Z,78.18
2022-11-16T07:37:37.793Z,78.21
2022-11-16T07:40:07.464Z,78.28
2022-11-16T07:42:36.485Z,78.08
2022-11-16T07:45:21.547Z,78.13
2022-11-16T07:47:54.651Z,78.14
2022-11-16T07:50:37.054Z,78.17
2022-11-16T07:53:08.145Z,78.23
2022-11-16T07:55:36.661Z,78.18
2022-11-16T07:58:05.849Z,78.25
2022-11-16T08:00:34.900Z,78.34
2022-11-16T08:03:09.167Z,78.37
2022-11-16T08:05:38.055Z,78.48
2022-11-16T08:08:07.101Z,78.58
2022-11-16T08:10:37.164Z,78.68
2022-11-16T08:13:06.977Z,78.74
2022-11-16T08:15:36.881Z,78.89
2022-11-16T08:18:07.342Z,78.97
2022-11-16T08:20:37.036Z,78.94
2022-11-16T08:23:05.922Z,79.11
2022-11-16T08:25:35.930Z,79.03
2022-11-16T08:28:04.739Z,79.06
2022-11-16T08:30:33.461Z,79.08
2022-11-16T08:33:03.877Z,78.97
2022-11-16T08:35:36.097Z,78.96
2022-11-16T08:38:06.628Z,78.90
2022-11-16T08:40:38.182Z,78.92
2022-11-16T08:43:07.080Z,78.75
2022-11-16T08:45:36.108Z,78.77
2022-11-16T08:48:05.894Z,78.22
2022-11-16T08:51:02.410Z,78.38
2022-11-16T08:53:27.216Z,78.67
2022-11-16T08:55:55.695Z,78.53
2022-11-16T08:58:24.481Z,78.81
2022-11-16T09:00:53.010Z,78.79
2022-11-16T09:03:21.859Z,78.87
2022-11-16T09:05:50.274Z,79.08
2022-11-16T09:08:18.870Z,78.71
2022-11-16T09:10:47.285Z,78.32
2022-11-16T09:13:15.669Z,78.37
2022-11-16T09:15:44.989Z,78.26
2022-11-16T09:18:13.577Z,78.36
2022-11-16T09:20:45.716Z,78.62
2022-11-16T09:23:14.404Z,79.43
2022-11-16T09:25:45.402Z,79.41
2022-11-16T09:28:14.230Z,79.35
2022-11-16T09:30:44.372Z,79.73
2022-11-16T09:33:13.485Z,79.90
2022-11-16T09:35:42.454Z,80.14
2022-11-16T09:38:12.713Z,80.42
2022-11-16T09:40:47.407Z,80.44
2022-11-16T09:43:35.424Z,80.60
2022-11-16T09:46:22.157Z,80.65
2022-11-16T09:48:51.499Z,80.71
2022-11-16T09:51:23.812Z,80.64
2022-11-16T09:54:06.432Z,80.81
2022-11-16T09:56:39.385Z,80.72
2022-11-16T09:59:29.524Z,80.68
2022-11-16T10:02:14.781Z,80.59
2022-11-16T10:04:58.194Z,80.47
2022-11-16T10:07:33.617Z,80.45
2022-11-16T10:10:02.548Z,80.27
2022-11-16T10:12:58.987Z,80.24
2022-11-16T10:16:05.249Z,80.08
2022-11-16T10:18:39.219Z,79.93
2022-11-16T10:21:33.240Z,79.90
2022-11-16T10:24:29.831Z,79.75
2022-11-16T10:27:24.375Z,79.75
2022-11-16T10:30:11.383Z,79.67
2022-11-16T10:33:00.784Z,79.65
2022-11-16T10:35:54.253Z,79.61
2022-11-16T10:38:29.037Z,79.57
2022-11-16T10:41:18.630Z,79.43
2022-11-16T10:43:48.654Z,79.55
2022-11-16T10:46:44.473Z,79.42
2022-11-16T10:49:15.830Z,79.42
2022-11-16T10:51:44.516Z,79.48
2022-11-16T10:54:14.428Z,79.51
2022-11-16T10:56:45.888Z,79.58
2022-11-16T10:59:18.375Z,79.72
2022-11-16T11:01:51.750Z,79.88
2022-11-16T11:04:20.240Z,80.17
2022-11-16T11:06:56.882Z,80.25
2022-11-16T11:09:35.307Z,80.23
2022-11-16T11:12:40.069Z,80.24
2022-11-16T11:15:11.731Z,80.16
2022-11-16T11:17:43.023Z,80.34
2022-11-16T11:20:17.616Z,80.23
2022-11-16T11:22:58.064Z,80.30
2022-11-16T11:25:38.862Z,80.32
2022-11-16T11:28:25.947Z,80.52
2022-11-16T11:31:04.923Z,80.47
2022-11-16T11:33:52.547Z,80.63
2022-11-16T11:36:48.151Z,80.58
2022-11-16T11:39:16.451Z,80.51
2022-11-16T11:41:47.044Z,80.45
2022-11-16T11:44:18.203Z,80.23
2022-11-16T11:47:50.252Z,80.27
2022-11-16T11:50:11.490Z,80.24
2022-11-16T11:52:47.344Z,80.11
2022-11-16T11:55:18.184Z,80.03
2022-11-16T11:57:50.348Z,79.81
2022-11-16T12:00:19.039Z,79.71
2022-11-16T12:03:27.166Z,79.73
2022-11-16T12:06:32.290Z,79.63
2022-11-16T12:09:04.360Z,78.64
2022-11-16T12:11:51.678Z,78.85
2022-11-16T12:14:58.356Z,79.32
2022-11-16T12:17:36.385Z,79.59
2022-11-16T12:20:29.520Z,79.56
2022-11-16T12:23:37.287Z,79.72
2022-11-16T12:26:32.256Z,80.00
2022-11-16T12:29:01.115Z,80.24
2022-11-16T12:32:05.076Z,80.16
2022-11-16T12:35:12.417Z,80.11
2022-11-16T12:37:55.858Z,80.13
2022-11-16T12:40:59.549Z,79.89
2022-11-16T12:43:51.698Z,79.94
2022-11-16T12:46:51.312Z,80.23
2022-11-16T12:49:53.331Z,80.57
2022-11-16T12:52:25.646Z,80.50
2022-11-16T12:58:10.531Z,80.53
2022-11-16T13:00:56.233Z,80.62
2022-11-16T13:03:55.518Z,80.96
2022-11-16T13:06:33.225Z,80.93
2022-11-16T13:09:38.966Z,81.04
2022-11-16T13:12:14.446Z,80.91
2022-11-16T13:14:45.350Z,80.64
2022-11-16T13:17:21.646Z,80.81
2022-11-16T13:20:15.250Z,80.95
2022-11-16T13:22:53.913Z,81.04
2022-11-16T13:26:01.193Z,80.96
2022-11-16T13:28:48.762Z,80.56
2022-11-16T13:31:29.007Z,80.43
2022-11-16T13:34:13.301Z,80.28
2022-11-16T13:36:45.508Z,80.31
2022-11-16T13:39:23.155Z,80.24
2022-11-16T13:42:14.200Z,80.23
2022-11-16T13:44:47.407Z,79.95
2022-11-16T13:47:27.839Z,79.82
2022-11-16T13:49:59.838Z,79.79
2022-11-16T13:53:23.423Z,79.81
2022-11-16T13:55:38.704Z,79.74
2022-11-16T13:58:11.555Z,79.76
2022-11-16T14:00:42.049Z,79.70
2022-11-16T14:03:16.913Z,79.75
2022-11-16T14:05:46.412Z,79.69
2022-11-16T14:08:27.628Z,79.85
2022-11-16T14:10:56.087Z,79.85
2022-11-16T14:13:30.932Z,79.94
2022-11-16T14:16:21.726Z,80.14
2022-11-16T14:19:03.062Z,80.07
2022-11-16T14:21:42.709Z,80.11
2022-11-16T14:24:30.279Z,79.95
2022-11-16T14:27:02.023Z,80.08
2022-11-16T14:29:58.541Z,79.89
2022-11-16T14:32:31.859Z,79.68
2022-11-16T14:35:05.274Z,79.53
2022-11-16T14:37:40.755Z,79.49
2022-11-16T14:40:18.227Z,79.42
2022-11-16T14:43:16.487Z,79.60
2022-11-16T14:46:09.736Z,79.46
2022-11-16T14:48:47.211Z,79.32
2022-11-16T14:51:27.717Z,79.39
2022-11-16T14:54:01.428Z,79.30
2022-11-16T14:56:31.414Z,79.27
2022-11-16T14:59:02.168Z,79.13
2022-11-16T15:01:37.082Z,79.22
2022-11-16T15:04:11.516Z,79.08
2022-11-16T15:07:02.819Z,79.05
2022-11-16T15:09:38.876Z,78.99
2022-11-16T15:12:34.588Z,78.94
2022-11-16T15:15:17.484Z,78.88
2022-11-16T15:18:05.591Z,78.83
2022-11-16T15:20:54.532Z,78.95
2022-11-16T15:24:23.459Z,78.90
2022-11-16T15:26:44.549Z,78.98
2022-11-16T15:29:18.408Z,79.14
2022-11-16T15:31:49.512Z,79.38
2022-11-16T15:34:20.210Z,79.35
2022-11-16T15:36:49.281Z,79.23
2022-11-16T15:39:28.588Z,79.20
2022-11-16T15:42:03.261Z,79.36
2022-11-16T15:44:33.994Z,79.27
2022-11-16T15:47:05.140Z,79.51
2022-11-16T15:49:40.811Z,79.55
2022-11-16T15:52:15.125Z,79.60
2022-11-16T15:55:10.530Z,79.66
2022-11-16T15:57:46.622Z,79.73
2022-11-16T16:00:28.293Z,79.60
2022-11-16T16:03:28.945Z,79.42
2022-11-16T16:06:20.294Z,79.52
2022-11-16T16:09:05.651Z,79.31
2022-11-16T16:11:42.813Z,79.18
2022-11-16T16:14:32.826Z,79.30
2022-11-16T16:17:27.999Z,79.27
2022-11-16T16:20:08.678Z,79.32
2022-11-16T16:22:54.963Z,79.38
2022-11-16T16:25:39.484Z,79.52
2022-11-16T16:28:16.485Z,79.44
2022-11-16T16:30:51.155Z,79.08
2022-11-16T16:33:30.053Z,79.02
2022-11-16T16:36:06.906Z,78.99
2022-11-16T16:38:47.511Z,79.09
2022-11-16T16:41:24.757Z,79.18
2022-11-16T16:43:59.144Z,79.34
2022-11-16T16:46:37.348Z,79.22
2022-11-16T16:49:11.763Z,79.25
2022-11-16T16:51:51.768Z,79.26
2022-11-16T16:54:25.843Z,79.24
2022-11-16T16:57:03.634Z,79.16
2022-11-16T16:59:35.740Z,79.43
2022-11-16T17:02:16.009Z,79.37
2022-11-16T17:04:50.876Z,79.03
2022-11-16T17:07:27.741Z,79.08
2022-11-16T17:10:06.235Z,79.06
2022-11-16T17:12:44.227Z,78.92
2022-11-16T17:15:19.613Z,78.93
2022-11-16T17:17:55.708Z,78.97
2022-11-16T17:20:32.634Z,79.07
2022-11-16T17:23:07.801Z,79.02
2022-11-16T17:25:41.768Z,79.04
2022-11-16T17:28:16.169Z,79.08
2022-11-16T17:30:51.038Z,79.12
2022-11-16T17:33:25.360Z,78.94
2022-11-16T17:36:03.184Z,78.99
2022-11-16T17:38:43.345Z,79.08
2022-11-16T17:41:28.965Z,79.07
2022-11-16T17:44:10.230Z,78.93
2022-11-16T17:46:46.540Z,78.82
2022-11-16T17:49:22.468Z,78.77
2022-11-16T17:52:02.149Z,78.53
2022-11-16T17:54:39.147Z,78.34
2022-11-16T17:57:11.899Z,78.08
2022-11-16T17:59:47.362Z,77.81
2022-11-16T18:02:26.664Z,77.44
2022-11-16T18:05:11.183Z,77.55
2022-11-16T18:07:51.339Z,77.65
2022-11-16T18:10:24.279Z,77.73
2022-11-16T18:12:54.110Z,77.68
2022-11-16T18:15:30.814Z,77.60
2022-11-16T18:18:00.079Z,77.85
2022-11-16T18:20:29.624Z,77.78
2022-11-16T18:22:59.128Z,77.69
2022-11-16T18:25:28.928Z,77.58
2022-11-16T18:27:57.990Z,77.52
2022-11-16T18:30:26.984Z,77.44
2022-11-16T18:32:56.226Z,77.14
2022-11-16T18:35:26.881Z,77.09
2022-11-16T18:37:56.532Z,77.14
2022-11-16T18:40:25.210Z,76.69
2022-11-16T18:42:54.330Z,76.60
2022-11-16T18:45:23.610Z,76.60
2022-11-16T18:47:52.295Z,76.43
2022-11-16T18:50:26.733Z,76.63
2022-11-16T18:52:59.744Z,76.93
2022-11-16T18:55:31.709Z,76.82
2022-11-16T18:58:04.520Z,77.17
2022-11-16T19:00:42.859Z,77.43
2022-11-16T19:03:13.865Z,77.34
2022-11-16T19:05:45.390Z,77.12
2022-11-16T19:08:16.239Z,77.04
2022-11-16T19:10:45.483Z,77.53
2022-11-16T19:13:17.013Z,77.33
2022-11-16T19:15:50.661Z,76.90
2022-11-16T19:18:22.033Z,76.85
2022-11-16T19:20:51.661Z,76.96
2022-11-16T19:23:22.252Z,76.90
2022-11-16T19:26:01.341Z,76.95
2022-11-16T19:28:37.352Z,77.08
2022-11-16T19:31:09.693Z,77.14
2022-11-16T19:33:40.251Z,77.14
2022-11-16T19:36:13.597Z,77.24
2022-11-16T19:38:45.443Z,77.19
2022-11-16T19:41:21.294Z,77.22
2022-11-16T19:43:54.585Z,77.43
2022-11-16T19:46:29.194Z,77.56
2022-11-16T19:49:01.508Z,77.55
2022-11-16T19:51:34.595Z,77.58
2022-11-16T19:54:06.017Z,77.46
2022-11-16T19:56:36.022Z,77.25
2022-11-16T19:59:05.702Z,77.39
2022-11-16T20:01:36.510Z,77.31
2022-11-16T20:04:06.807Z,77.20
2022-11-16T20:06:39.422Z,77.28
2022-11-16T20:09:12.560Z,77.41
2022-11-16T20:11:43.893Z,77.40
2022-11-16T20:14:15.278Z,77.58
2022-11-16T20:16:50.679Z,77.62
2022-11-16T20:19:21.143Z,77.72
2022-11-16T20:21:54.239Z,77.87
2022-11-16T20:24:24.542Z,78.24
2022-11-16T20:26:56.182Z,78.21
2022-11-16T20:29:32.463Z,78.10
2022-11-16T20:32:07.591Z,78.11
2022-11-16T20:34:42.780Z,77.81
2022-11-16T20:37:13.949Z,77.89
2022-11-16T20:39:46.592Z,78.28
2022-11-16T20:42:17.034Z,78.47
2022-11-16T20:44:47.261Z,78.54
2022-11-16T20:47:16.809Z,78.75
2022-11-16T20:49:46.488Z,78.76
2022-11-16T20:52:16.855Z,78.86
2022-11-16T20:54:46.340Z,78.81
2022-11-16T20:57:16.503Z,78.72
2022-11-16T20:59:45.955Z,78.52
2022-11-16T21:02:15.871Z,78.45
2022-11-16T21:04:46.301Z,78.59
2022-11-16T21:07:21.194Z,78.55
2022-11-16T21:10:11.597Z,78.38
2022-11-16T21:13:01.742Z,78.17
2022-11-16T21:15:31.422Z,78.16
2022-11-16T21:18:01.125Z,78.39
2022-11-16T21:20:30.083Z,78.30
2022-11-16T21:22:59.209Z,78.14
2022-11-16T21:25:28.330Z,78.03
2022-11-16T21:27:57.935Z,78.02
2022-11-16T21:30:27.640Z,78.03
2022-11-16T21:32:57.882Z,77.98
2022-11-16T21:35:27.473Z,78.04
2022-11-16T21:37:56.887Z,78.03
2022-11-16T21:40:26.479Z,78.12
2022-11-16T21:42:56.371Z,78.02
2022-11-16T21:45:26.371Z,78.12
2022-11-16T21:47:56.161Z,78.00
2022-11-16T21:50:31.508Z,78.23
2022-11-16T21:53:02.032Z,78.25
2022-11-16T21:55:31.722Z,78.24
2022-11-16T21:58:03.697Z,78.19
2022-11-16T22:00:32.280Z,78.07
2022-11-16T22:03:01.711Z,78.04
2022-11-16T22:05:49.974Z,78.11
2022-11-16T22:08:19.662Z,78.23
2022-11-16T22:10:52.906Z,78.32
2022-11-16T22:13:22.825Z,78.15
2022-11-16T22:15:52.546Z,78.13
2022-11-16T22:18:22.216Z,78.29
2022-11-16T22:20:55.388Z,78.32
2022-11-16T22:23:29.216Z,78.33
2022-11-16T22:26:12.249Z,78.52
2022-11-16T22:28:44.420Z,78.46
2022-11-16T22:31:15.636Z,78.54
2022-11-16T22:33:45.553Z,78.62
2022-11-16T22:36:15.394Z,78.59
2022-11-16T22:38:44.487Z,78.57
2022-11-16T22:41:13.470Z,78.44
2022-11-16T22:43:42.122Z,78.63
2022-11-16T22:46:11.525Z,78.56
2022-11-16T22:48:41.474Z,78.08
2022-11-16T22:51:28.239Z,78.05
2022-11-16T22:53:59.510Z,78.53
2022-11-16T22:56:30.952Z,78.61
2022-11-16T22:59:02.703Z,78.59
2022-11-16T23:01:32.783Z,78.53
2022-11-16T23:04:03.123Z,78.73
2022-11-16T23:06:33.130Z,78.42
2022-11-16T23:09:01.886Z,78.62
2022-11-16T23:11:49.500Z,78.65
2022-11-16T23:14:37.116Z,78.91
2022-11-16T23:17:06.831Z,78.89
2022-11-16T23:19:54.246Z,78.79
2022-11-16T23:22:41.152Z,78.73
2022-11-16T23:25:30.524Z,78.27
2022-11-16T23:28:00.731Z,78.27
2022-11-16T23:30:29.124Z,78.15
2022-11-16T23:32:57.457Z,78.03
2022-11-16T23:35:25.599Z,78.12
2022-11-16T23:37:58.973Z,78.46
2022-11-16T23:40:30.657Z,78.29
2022-11-16T23:43:18.156Z,78.46
2022-11-16T23:45:46.381Z,78.46
2022-11-16T23:48:16.693Z,78.81
2022-11-16T23:50:46.171Z,79.03
2022-11-16T23:53:15.651Z,79.04
2022-11-16T23:55:43.942Z,79.21
2022-11-16T23:58:15.048Z,79.43
